createdAt,value
2018-11-23T00:01:02.951Z,29.03
2018-11-23T00:03:30.358Z,27.20
2018-11-23T00:05:57.577Z,25.60
2018-11-23T00:08:24.774Z,27.47
2018-11-23T00:10:51.994Z,24.33
2018-11-23T00:13:19.255Z,24.20
2018-11-23T00:15:46.518Z,23.63
2018-11-23T00:18:14.087Z,20.60
2018-11-23T00:20:41.329Z,21.17
2018-11-23T00:23:08.553Z,21.13
2018-11-23T00:25:35.803Z,22.63
2018-11-23T00:28:03.026Z,20.20
2018-11-23T00:30:30.525Z,23.07
2018-11-23T00:32:57.889Z,22.67
2018-11-23T00:35:26.469Z,18.97
2018-11-23T00:37:54.217Z,22.37
2018-11-23T00:40:25.792Z,23.33
2018-11-23T00:42:53.325Z,21.70
2018-11-23T00:45:20.792Z,20.67
2018-11-23T00:47:48.592Z,21.87
2018-11-23T00:50:16.749Z,24.17
2018-11-23T00:52:44.602Z,22.47
2018-11-23T00:55:13.182Z,25.20
2018-11-23T00:57:40.574Z,21.40
2018-11-23T01:00:13.562Z,21.87
2018-11-23T01:02:40.990Z,21.50
2018-11-23T01:05:09.262Z,21.30
2018-11-23T01:07:37.022Z,22.63
2018-11-23T01:10:06.123Z,22.63
2018-11-23T01:12:33.375Z,21.67
2018-11-23T01:15:00.623Z,23.37
2018-11-23T01:17:27.826Z,23.03
2018-11-23T01:19:55.078Z,22.33
2018-11-23T01:22:22.294Z,25.10
2018-11-23T01:24:49.534Z,27.47
2018-11-23T01:27:16.754Z,25.10
2018-11-23T01:29:43.997Z,26.80
2018-11-23T01:32:11.238Z,30.00
2018-11-23T01:34:38.462Z,27.97
2018-11-23T01:37:05.714Z,29.23
2018-11-23T01:39:32.942Z,25.53
2018-11-23T01:42:00.194Z,26.30
2018-11-23T01:44:27.420Z,26.73
2018-11-23T01:46:54.646Z,27.43
2018-11-23T01:49:21.863Z,26.80
2018-11-23T01:51:49.214Z,27.27
2018-11-23T01:54:16.455Z,25.10
2018-11-23T01:56:43.662Z,24.70
2018-11-23T01:59:10.886Z,24.80
2018-11-23T02:01:38.093Z,28.33
2018-11-23T02:04:05.354Z,25.43
2018-11-23T02:06:32.580Z,24.83
2018-11-23T02:08:59.799Z,26.20
2018-11-23T02:11:27.013Z,28.00
2018-11-23T02:13:54.225Z,28.03
2018-11-23T02:16:21.703Z,31.07
2018-11-23T02:18:48.913Z,31.43
2018-11-23T02:21:16.149Z,29.03
2018-11-23T02:23:43.380Z,31.50
2018-11-23T02:26:10.601Z,30.40
2018-11-23T02:28:37.862Z,27.67
2018-11-23T02:31:07.608Z,31.73
2018-11-23T02:33:36.343Z,30.33
2018-11-23T02:36:04.313Z,24.70
2018-11-23T02:38:31.574Z,27.27
2018-11-23T02:40:58.821Z,26.53
2018-11-23T02:43:26.033Z,28.27
2018-11-23T02:45:53.243Z,25.20
2018-11-23T02:48:20.504Z,26.03
2018-11-23T02:50:47.754Z,24.63
2018-11-23T02:53:14.974Z,23.43
2018-11-23T02:55:42.237Z,23.67
2018-11-23T02:58:09.458Z,24.73
2018-11-23T03:00:36.669Z,23.07
2018-11-23T03:03:04.095Z,22.37
2018-11-23T03:05:31.310Z,28.37
2018-11-23T03:07:58.534Z,24.77
2018-11-23T03:10:25.776Z,20.87
2018-11-23T03:12:53.004Z,23.00
2018-11-23T03:15:20.674Z,25.27
2018-11-23T03:17:48.327Z,21.10
2018-11-23T03:20:20.525Z,23.23
2018-11-23T03:22:47.751Z,22.70
2018-11-23T03:25:15.421Z,23.23
2018-11-23T03:27:42.684Z,25.60
2018-11-23T03:30:13.499Z,23.37
2018-11-23T03:32:40.772Z,22.50
2018-11-23T03:35:08.415Z,25.73
2018-11-23T03:37:35.769Z,25.33
2018-11-23T03:40:03.347Z,24.77
2018-11-23T03:42:30.575Z,23.97
2018-11-23T03:44:57.806Z,24.20
2018-11-23T03:47:25.032Z,25.80
2018-11-23T03:49:52.260Z,25.00
2018-11-23T03:52:19.492Z,23.97
2018-11-23T03:54:46.719Z,20.57
2018-11-23T03:57:14.283Z,20.90
2018-11-23T03:59:41.523Z,23.60
2018-11-23T04:02:08.764Z,25.20
2018-11-23T04:04:35.979Z,25.93
2018-11-23T04:07:03.242Z,29.73
2018-11-23T04:09:30.454Z,29.90
2018-11-23T04:11:57.687Z,28.07
2018-11-23T04:14:24.947Z,25.13
2018-11-23T04:16:52.175Z,25.47
2018-11-23T04:19:19.406Z,24.10
2018-11-23T04:21:46.627Z,25.90
2018-11-23T04:24:13.864Z,26.30
2018-11-23T04:26:41.075Z,30.00
2018-11-23T04:29:08.297Z,24.90
2018-11-23T04:31:35.548Z,28.80
2018-11-23T04:34:02.782Z,26.37
2018-11-23T04:36:30.005Z,25.60
2018-11-23T04:38:57.218Z,26.60
2018-11-23T04:41:24.457Z,26.87
2018-11-23T04:43:51.703Z,27.10
2018-11-23T04:46:18.940Z,26.33
2018-11-23T04:48:46.166Z,26.03
2018-11-23T04:51:13.387Z,22.60
2018-11-23T04:53:40.613Z,22.03
2018-11-23T04:56:07.827Z,23.07
2018-11-23T04:58:35.132Z,25.00
2018-11-23T05:01:02.386Z,22.20
2018-11-23T05:03:29.618Z,29.17
2018-11-23T05:05:56.854Z,24.17
2018-11-23T05:08:24.096Z,23.10
2018-11-23T05:10:51.327Z,26.07
2018-11-23T05:13:18.550Z,24.97
2018-11-23T05:15:45.777Z,22.53
2018-11-23T05:18:13.005Z,24.63
2018-11-23T05:20:40.230Z,24.83
2018-11-23T05:23:07.479Z,22.60
2018-11-23T05:25:34.712Z,26.43
2018-11-23T05:28:01.945Z,22.43
2018-11-23T05:30:29.169Z,29.20
2018-11-23T05:32:56.407Z,30.17
2018-11-23T05:35:23.631Z,27.23
2018-11-23T05:37:50.884Z,27.33
2018-11-23T05:40:19.403Z,30.07
2018-11-23T05:42:46.952Z,31.57
2018-11-23T05:45:16.645Z,25.33
2018-11-23T05:47:44.026Z,31.20
2018-11-23T05:50:19.345Z,29.47
2018-11-23T05:52:46.572Z,26.53
2018-11-23T05:55:13.973Z,28.33
2018-11-23T05:57:41.814Z,24.87
2018-11-23T06:00:12.734Z,26.40
2018-11-23T06:02:39.961Z,25.33
2018-11-23T06:05:07.559Z,30.40
2018-11-23T06:07:35.016Z,30.47
2018-11-23T06:10:02.458Z,28.43
2018-11-23T06:12:29.692Z,29.00
2018-11-23T06:14:56.922Z,23.87
2018-11-23T06:17:24.132Z,27.80
2018-11-23T06:19:51.353Z,29.00
2018-11-23T06:22:18.596Z,25.27
2018-11-23T06:24:45.834Z,26.17
2018-11-23T06:27:13.054Z,30.40
2018-11-23T06:29:40.286Z,31.63
2018-11-23T06:32:19.207Z,26.23
2018-11-23T06:34:46.446Z,30.47
2018-11-23T06:37:13.665Z,27.33
2018-11-23T06:39:40.890Z,29.27
2018-11-23T06:42:08.117Z,25.37
2018-11-23T06:44:35.358Z,31.03
2018-11-23T06:47:02.626Z,27.60
2018-11-23T06:49:29.867Z,24.93
2018-11-23T06:51:57.082Z,27.93
2018-11-23T06:54:24.326Z,27.43
2018-11-23T06:56:51.554Z,24.90
2018-11-23T06:59:18.810Z,27.43
2018-11-23T07:01:46.057Z,24.83
2018-11-23T07:04:13.282Z,29.93
2018-11-23T07:06:40.546Z,29.83
2018-11-23T07:09:08.290Z,30.07
2018-11-23T07:11:35.543Z,29.40
2018-11-23T07:14:04.041Z,30.93
2018-11-23T07:16:30.108Z,31.27
2018-11-23T07:18:57.341Z,27.57
2018-11-23T07:21:24.658Z,30.10
2018-11-23T07:23:51.924Z,30.00
2018-11-23T07:26:19.151Z,28.67
2018-11-23T07:28:46.399Z,26.97
2018-11-23T07:31:13.669Z,29.93
2018-11-23T07:33:40.917Z,27.83
2018-11-23T07:36:08.134Z,31.50
2018-11-23T07:38:35.405Z,31.83
2018-11-23T07:41:14.330Z,29.13
2018-11-23T07:43:41.594Z,33.07
2018-11-23T07:46:08.834Z,35.07
2018-11-23T07:48:36.069Z,30.33
2018-11-23T07:51:03.433Z,33.30
2018-11-23T07:53:30.658Z,27.60
2018-11-23T07:55:57.889Z,28.93
2018-11-23T07:58:25.144Z,25.50
2018-11-23T08:00:52.411Z,31.13
2018-11-23T08:03:19.632Z,29.70
2018-11-23T08:05:46.883Z,29.03
2018-11-23T08:08:14.158Z,28.57
2018-11-23T08:10:40.934Z,28.03
2018-11-23T08:13:08.171Z,30.07
2018-11-23T08:15:35.438Z,28.93
2018-11-23T08:18:02.671Z,28.33
2018-11-23T08:20:29.930Z,27.17
2018-11-23T08:22:57.146Z,25.97
2018-11-23T08:25:25.094Z,32.43
2018-11-23T08:27:53.678Z,30.37
2018-11-23T08:30:22.260Z,33.63
2018-11-23T08:32:49.529Z,25.80
2018-11-23T08:35:16.764Z,27.87
2018-11-23T08:37:44.305Z,26.43
2018-11-23T08:40:15.173Z,28.53
2018-11-23T08:42:42.906Z,26.77
2018-11-23T08:45:12.614Z,31.67
2018-11-23T08:47:40.006Z,33.70
2018-11-23T08:50:09.598Z,26.63
2018-11-23T08:52:36.980Z,29.77
2018-11-23T08:55:04.918Z,33.07
2018-11-23T08:57:32.153Z,27.27
2018-11-23T08:59:59.380Z,28.50
2018-11-23T09:02:26.621Z,29.10
2018-11-23T09:04:53.857Z,33.27
2018-11-23T09:07:21.190Z,32.77
2018-11-23T09:09:48.412Z,32.13
2018-11-23T09:12:15.632Z,28.93
2018-11-23T09:14:42.841Z,28.27
2018-11-23T09:17:10.084Z,30.17
2018-11-23T09:19:37.334Z,27.80
2018-11-23T09:22:05.278Z,28.90
2018-11-23T09:24:32.573Z,29.30
2018-11-23T09:26:59.806Z,29.37
2018-11-23T09:29:27.031Z,30.97
2018-11-23T09:31:54.299Z,35.03
2018-11-23T09:34:21.538Z,32.57
2018-11-23T09:36:48.762Z,30.73
2018-11-23T09:39:16.029Z,32.17
2018-11-23T09:41:43.427Z,35.00
2018-11-23T09:44:10.666Z,31.20
2018-11-23T09:46:37.891Z,33.03
2018-11-23T09:49:05.234Z,34.53
2018-11-23T09:51:32.452Z,31.43
2018-11-23T09:53:59.702Z,30.97
2018-11-23T09:56:26.950Z,33.07
2018-11-23T09:58:54.180Z,33.63
2018-11-23T10:01:21.404Z,32.83
2018-11-23T10:03:48.651Z,31.00
2018-11-23T10:06:15.898Z,31.77
2018-11-23T10:08:43.134Z,34.43
2018-11-23T10:11:10.411Z,33.70
2018-11-23T10:13:37.657Z,35.27
2018-11-23T10:16:04.902Z,36.67
2018-11-23T10:18:32.138Z,33.37
2018-11-23T10:20:59.386Z,32.53
2018-11-23T10:23:26.630Z,35.13
2018-11-23T10:25:54.574Z,36.10
2018-11-23T10:28:21.795Z,34.67
2018-11-23T10:30:49.034Z,31.13
2018-11-23T10:33:16.278Z,32.90
2018-11-23T10:35:43.502Z,33.83
2018-11-23T10:38:10.743Z,33.73
2018-11-23T10:40:39.405Z,31.83
2018-11-23T10:43:07.055Z,31.73
2018-11-23T10:45:34.624Z,34.23
2018-11-23T10:48:03.004Z,33.93
2018-11-23T10:50:31.797Z,34.60
2018-11-23T10:52:59.014Z,34.07
2018-11-23T10:55:27.933Z,36.00
2018-11-23T10:57:55.213Z,38.43
2018-11-23T11:00:28.192Z,30.37
2018-11-23T11:03:01.190Z,35.73
2018-11-23T11:05:40.922Z,35.57
2018-11-23T11:08:08.166Z,32.20
2018-11-23T11:10:35.430Z,31.43
2018-11-23T11:13:02.794Z,33.43
2018-11-23T11:15:30.019Z,33.90
2018-11-23T11:17:57.246Z,32.80
2018-11-23T11:20:24.773Z,35.97
2018-11-23T11:22:52.006Z,33.47
2018-11-23T11:25:19.238Z,32.77
2018-11-23T11:27:46.483Z,31.63
2018-11-23T11:30:15.150Z,34.87
2018-11-23T11:32:42.811Z,34.03
2018-11-23T11:35:10.795Z,33.23
2018-11-23T11:37:38.353Z,32.77
2018-11-23T11:40:07.561Z,34.80
2018-11-23T11:42:34.814Z,35.90
2018-11-23T11:45:02.114Z,33.20
2018-11-23T11:47:29.325Z,33.83
2018-11-23T11:49:59.151Z,35.00
2018-11-23T11:52:23.805Z,35.60
2018-11-23T11:54:51.154Z,34.23
2018-11-23T11:57:18.394Z,37.43
2018-11-23T11:59:45.634Z,41.57
2018-11-23T12:02:12.867Z,35.07
2018-11-23T12:04:40.113Z,31.20
2018-11-23T12:07:07.370Z,36.17
2018-11-23T12:09:34.630Z,33.53
2018-11-23T12:12:02.019Z,34.20
2018-11-23T12:14:29.481Z,33.10
2018-11-23T12:16:56.741Z,33.07
2018-11-23T12:19:23.965Z,31.87
2018-11-23T12:21:51.397Z,29.57
2018-11-23T12:24:18.620Z,28.57
2018-11-23T12:26:45.870Z,32.70
2018-11-23T12:29:13.147Z,32.43
2018-11-23T12:31:40.377Z,31.90
2018-11-23T12:34:07.610Z,31.70
2018-11-23T12:36:34.939Z,30.70
2018-11-23T12:39:02.227Z,28.90
2018-11-23T12:41:29.535Z,32.10
2018-11-23T12:43:56.758Z,30.33
2018-11-23T12:46:24.000Z,31.73
2018-11-23T12:48:51.239Z,28.43
2018-11-23T12:51:18.468Z,30.57
2018-11-23T12:53:45.671Z,30.80
2018-11-23T12:56:12.870Z,29.20
2018-11-23T12:58:40.115Z,29.77
2018-11-23T13:01:07.332Z,34.23
2018-11-23T13:03:34.542Z,27.93
2018-11-23T13:06:02.140Z,27.43
2018-11-23T13:08:29.349Z,28.87
2018-11-23T13:10:56.565Z,27.07
2018-11-23T13:13:23.808Z,27.57
2018-11-23T13:15:51.010Z,27.07
2018-11-23T13:18:18.259Z,29.70
2018-11-23T13:20:45.490Z,33.03
2018-11-23T13:23:12.742Z,29.63
2018-11-23T13:25:39.938Z,30.50
2018-11-23T13:28:07.150Z,32.50
2018-11-23T13:30:35.476Z,30.20
2018-11-23T13:33:02.723Z,29.30
2018-11-23T13:35:29.969Z,28.23
2018-11-23T13:37:57.258Z,28.50
2018-11-23T13:40:25.533Z,28.53
2018-11-23T13:42:53.671Z,29.33
2018-11-23T13:45:22.155Z,29.77
2018-11-23T13:47:49.394Z,33.70
2018-11-23T13:50:17.970Z,31.57
2018-11-23T13:52:46.158Z,28.37
2018-11-23T13:55:13.435Z,28.37
2018-11-23T13:57:40.648Z,30.90
2018-11-23T14:00:15.166Z,31.23
2018-11-23T14:02:42.726Z,28.40
2018-11-23T14:05:11.675Z,31.17
2018-11-23T14:07:39.191Z,29.67
2018-11-23T14:10:09.414Z,30.17
2018-11-23T14:12:36.646Z,29.00
2018-11-23T14:15:04.933Z,30.77
2018-11-23T14:17:32.194Z,30.97
2018-11-23T14:20:00.069Z,29.93
2018-11-23T14:22:26.645Z,28.13
2018-11-23T14:24:53.878Z,29.30
2018-11-23T14:27:21.329Z,30.73
2018-11-23T14:29:48.560Z,29.10
2018-11-23T14:32:15.786Z,32.33
2018-11-23T14:34:43.002Z,31.40
2018-11-23T14:37:10.198Z,33.60
2018-11-23T14:39:37.431Z,27.77
2018-11-23T14:42:05.330Z,33.30
2018-11-23T14:44:33.182Z,30.33
2018-11-23T14:47:00.404Z,33.73
2018-11-23T14:49:27.618Z,31.70
2018-11-23T14:51:54.872Z,30.10
2018-11-23T14:54:22.081Z,29.10
2018-11-23T14:56:49.301Z,29.40
2018-11-23T14:59:16.526Z,31.90
2018-11-23T15:01:43.734Z,32.27
2018-11-23T15:04:10.975Z,30.90
2018-11-23T15:06:38.222Z,31.83
2018-11-23T15:09:07.855Z,31.37
2018-11-23T15:11:35.174Z,28.13
2018-11-23T15:14:02.425Z,30.07
2018-11-23T15:16:29.709Z,29.47
2018-11-23T15:18:56.905Z,28.53
2018-11-23T15:21:24.126Z,28.17
2018-11-23T15:23:51.346Z,28.67
2018-11-23T15:26:18.566Z,29.87
2018-11-23T15:28:46.083Z,29.10
2018-11-23T15:31:13.310Z,27.43
2018-11-23T15:33:40.572Z,26.53
2018-11-23T15:36:07.839Z,26.77
2018-11-23T15:38:35.110Z,28.87
2018-11-23T15:41:02.374Z,25.60
2018-11-23T15:43:29.622Z,25.90
2018-11-23T15:45:56.866Z,25.97
2018-11-23T15:48:24.081Z,28.00
2018-11-23T15:50:51.323Z,25.93
2018-11-23T15:53:18.629Z,25.70
2018-11-23T15:55:45.856Z,25.97
2018-11-23T15:58:14.534Z,24.57
2018-11-23T16:00:43.112Z,26.30
2018-11-23T16:03:11.394Z,28.17
2018-11-23T16:05:38.953Z,24.53
2018-11-23T16:08:08.948Z,22.73
2018-11-23T16:10:37.044Z,23.80
2018-11-23T16:13:11.172Z,22.60
2018-11-23T16:15:33.598Z,22.70
2018-11-23T16:18:01.259Z,28.27
2018-11-23T16:20:31.573Z,22.97
2018-11-23T16:23:00.351Z,25.80
2018-11-23T16:25:27.566Z,24.60
2018-11-23T16:27:56.290Z,24.57
2018-11-23T16:30:25.690Z,27.43
2018-11-23T16:32:54.175Z,23.73
2018-11-23T16:35:22.772Z,33.27
2018-11-23T16:37:50.514Z,33.80
2018-11-23T16:40:19.421Z,27.33
2018-11-23T16:42:46.656Z,27.57
2018-11-23T16:45:16.585Z,25.27
2018-11-23T16:47:44.266Z,26.70
2018-11-23T16:50:11.998Z,24.30
2018-11-23T16:52:39.982Z,26.63
2018-11-23T16:55:08.758Z,28.50
2018-11-23T16:57:36.029Z,22.70
2018-11-23T17:00:03.679Z,25.97
2018-11-23T17:02:30.930Z,23.80
2018-11-23T17:04:58.149Z,27.83
2018-11-23T17:07:25.372Z,24.77
2018-11-23T17:09:52.594Z,26.70
2018-11-23T17:12:20.033Z,22.80
2018-11-23T17:14:47.393Z,29.10
2018-11-23T17:17:14.642Z,24.77
2018-11-23T17:19:41.998Z,22.60
2018-11-23T17:22:09.217Z,24.60
2018-11-23T17:24:36.470Z,24.93
2018-11-23T17:27:03.766Z,23.20
2018-11-23T17:29:31.071Z,24.87
2018-11-23T17:31:58.575Z,25.57
2018-11-23T17:34:25.783Z,23.93
2018-11-23T17:36:53.052Z,22.83
2018-11-23T17:39:20.282Z,25.43
2018-11-23T17:41:47.673Z,26.20
2018-11-23T17:44:15.012Z,24.50
2018-11-23T17:46:42.283Z,25.57
2018-11-23T17:49:09.502Z,23.33
2018-11-23T17:51:36.723Z,24.23
2018-11-23T17:54:04.438Z,23.80
2018-11-23T17:56:31.682Z,23.90
2018-11-23T17:58:58.935Z,24.00
2018-11-23T18:01:26.174Z,26.27
2018-11-23T18:03:53.390Z,27.73
2018-11-23T18:06:20.606Z,26.07
2018-11-23T18:08:47.870Z,23.90
2018-11-23T18:11:15.090Z,26.53
2018-11-23T18:13:42.381Z,27.73
2018-11-23T18:16:09.619Z,28.73
2018-11-23T18:18:36.991Z,25.90
2018-11-23T18:21:04.390Z,25.47
2018-11-23T18:23:31.602Z,26.33
2018-11-23T18:25:58.831Z,23.77
2018-11-23T18:28:26.041Z,26.93
2018-11-23T18:30:53.256Z,25.40
2018-11-23T18:33:20.508Z,24.60
2018-11-23T18:35:47.725Z,26.23
2018-11-23T18:38:15.573Z,24.87
2018-11-23T18:40:42.960Z,25.03
2018-11-23T18:43:10.161Z,24.47
2018-11-23T18:45:37.373Z,23.67
2018-11-23T18:48:04.665Z,25.67
2018-11-23T18:50:31.906Z,22.07
2018-11-23T18:52:59.185Z,24.53
2018-11-23T18:55:26.439Z,20.77
2018-11-23T18:57:53.657Z,23.27
2018-11-23T19:00:20.886Z,23.57
2018-11-23T19:02:48.133Z,25.77
2018-11-23T19:05:19.662Z,24.73
2018-11-23T19:07:46.909Z,22.33
2018-11-23T19:10:14.398Z,22.73
2018-11-23T19:12:41.639Z,22.80
2018-11-23T19:15:12.012Z,26.23
2018-11-23T19:17:39.266Z,23.87
2018-11-23T19:20:09.534Z,23.37
2018-11-23T19:22:36.797Z,24.63
2018-11-23T19:25:04.896Z,23.50
2018-11-23T19:27:32.130Z,25.60
2018-11-23T19:29:59.362Z,26.73
2018-11-23T19:32:26.603Z,27.23
2018-11-23T19:34:53.842Z,23.03
2018-11-23T19:37:21.071Z,22.07
2018-11-23T19:39:48.290Z,25.10
2018-11-23T19:42:15.511Z,23.13
2018-11-23T19:44:42.741Z,24.03
2018-11-23T19:47:09.974Z,23.23
2018-11-23T19:49:37.190Z,24.93
2018-11-23T19:52:04.736Z,27.23
2018-11-23T19:54:31.951Z,21.63
2018-11-23T19:56:59.214Z,26.83
2018-11-23T19:59:26.436Z,25.43
2018-11-23T20:01:53.767Z,24.80
2018-11-23T20:04:21.025Z,29.70
2018-11-23T20:06:48.241Z,23.30
2018-11-23T20:09:15.450Z,24.50
2018-11-23T20:11:42.709Z,24.33
2018-11-23T20:14:09.957Z,25.30
2018-11-23T20:16:37.178Z,25.63
2018-11-23T20:19:04.398Z,22.97
2018-11-23T20:21:31.615Z,24.23
2018-11-23T20:23:58.822Z,22.97
2018-11-23T20:26:26.090Z,20.27
2018-11-23T20:28:53.310Z,26.77
2018-11-23T20:31:20.533Z,25.87
2018-11-23T20:33:47.858Z,23.13
2018-11-23T20:36:15.086Z,23.93
2018-11-23T20:38:42.329Z,22.87
2018-11-23T20:41:09.571Z,21.40
2018-11-23T20:43:36.789Z,23.07
2018-11-23T20:46:04.247Z,24.80
2018-11-23T20:48:31.466Z,27.17
2018-11-23T20:50:58.710Z,21.97
2018-11-23T20:53:25.923Z,26.77
2018-11-23T20:55:53.138Z,22.93
2018-11-23T20:58:20.365Z,26.03
2018-11-23T21:00:47.602Z,21.63
2018-11-23T21:03:14.839Z,24.70
2018-11-23T21:05:42.095Z,24.60
2018-11-23T21:08:09.330Z,24.60
2018-11-23T21:10:36.548Z,23.10
2018-11-23T21:13:04.028Z,22.70
2018-11-23T21:15:31.421Z,26.30
2018-11-23T21:18:00.047Z,25.00
2018-11-23T21:20:27.658Z,25.27
2018-11-23T21:22:54.903Z,24.70
2018-11-23T21:25:22.138Z,20.57
2018-11-23T21:27:49.374Z,24.00
2018-11-23T21:30:19.672Z,25.37
2018-11-23T21:32:46.911Z,26.53
2018-11-23T21:35:14.199Z,24.70
2018-11-23T21:37:41.447Z,24.17
2018-11-23T21:40:09.838Z,24.93
2018-11-23T21:42:37.058Z,25.90
2018-11-23T21:45:06.303Z,26.37
2018-11-23T21:47:33.550Z,25.90
2018-11-23T21:50:00.774Z,26.37
2018-11-23T21:52:28.550Z,23.43
2018-11-23T21:54:55.795Z,25.13
2018-11-23T21:57:23.026Z,21.87
2018-11-23T21:59:50.276Z,26.07
2018-11-23T22:02:17.483Z,24.93
2018-11-23T22:04:44.729Z,25.53
2018-11-23T22:07:11.950Z,23.60
2018-11-23T22:09:39.162Z,24.50
2018-11-23T22:12:06.382Z,24.63
2018-11-23T22:14:33.625Z,24.77
2018-11-23T22:17:01.661Z,22.40
2018-11-23T22:19:28.902Z,24.33
2018-11-23T22:21:56.131Z,26.20
2018-11-23T22:24:23.347Z,26.77
2018-11-23T22:26:50.541Z,24.83
2018-11-23T22:29:17.754Z,28.10
2018-11-23T22:31:44.963Z,28.30
2018-11-23T22:34:12.185Z,27.07
2018-11-23T22:36:39.410Z,29.63
2018-11-23T22:39:08.526Z,34.07
2018-11-23T22:41:35.938Z,32.40
2018-11-23T22:44:03.214Z,37.00
2018-11-23T22:46:30.441Z,29.33
2018-11-23T22:48:57.681Z,28.57
2018-11-23T22:51:24.906Z,24.23
2018-11-23T22:53:52.166Z,28.27
2018-11-23T22:56:19.369Z,27.33
2018-11-23T22:58:46.586Z,25.50
2018-11-23T23:01:13.819Z,28.63
2018-11-23T23:03:41.029Z,23.07
2018-11-23T23:06:08.273Z,26.67
2018-11-23T23:08:35.466Z,28.30
2018-11-23T23:11:02.702Z,29.60
2018-11-23T23:13:29.914Z,33.40
2018-11-23T23:15:57.135Z,28.57
2018-11-23T23:18:24.354Z,26.03
2018-11-23T23:20:51.577Z,25.77
2018-11-23T23:23:18.797Z,22.63
2018-11-23T23:25:46.019Z,22.77
2018-11-23T23:28:13.694Z,25.33
2018-11-23T23:30:40.938Z,25.30
2018-11-23T23:33:08.174Z,26.20
2018-11-23T23:35:35.403Z,26.80
2018-11-23T23:38:02.642Z,23.33
2018-11-23T23:40:29.879Z,23.47
2018-11-23T23:42:57.094Z,26.03
2018-11-23T23:45:24.316Z,33.83
2018-11-23T23:47:51.567Z,27.00
2018-11-23T23:50:19.845Z,26.73
2018-11-23T23:52:47.175Z,25.57
2018-11-23T23:55:15.598Z,27.23
2018-11-23T23:57:43.833Z,28.77
